sensor_id;sensor_type;location;lat;lon;timestamp;pressure;altitude;pressure_sealevel;temperature;humidity
40794;BME280;26502;51.886;15.604;2023-08-20T00:00:51;100966.55;;;22.48;63.48
40794;BME280;26502;51.886;15.604;2023-08-20T00:06:18;100971.81;;;22.50;63.81
40794;BME280;26502;51.886;15.604;2023-08-20T00:11:25;100972.99;;;22.47;63.86
40794;BME280;26502;51.886;15.604;2023-08-20T00:16:33;100968.48;;;22.42;63.94
40794;BME280;26502;51.886;15.604;2023-08-20T00:21:43;100964.77;;;22.34;64.08
40794;BME280;26502;51.886;15.604;2023-08-20T00:26:51;100962.83;;;22.23;64.29
40794;BME280;26502;51.886;15.604;2023-08-20T00:31:57;100965.81;;;22.12;64.27
40794;BME280;26502;51.886;15.604;2023-08-20T00:37:03;100965.67;;;22.10;64.45
40794;BME280;26502;51.886;15.604;2023-08-20T00:42:10;100970.47;;;22.08;64.51
40794;BME280;26502;51.886;15.604;2023-08-20T00:47:17;100971.35;;;22.11;64.61
40794;BME280;26502;51.886;15.604;2023-08-20T00:52:24;100967.13;;;22.12;64.59
40794;BME280;26502;51.886;15.604;2023-08-20T00:57:30;100967.02;;;22.04;64.61
40794;BME280;26502;51.886;15.604;2023-08-20T01:02:36;100967.36;;;21.88;64.92
40794;BME280;26502;51.886;15.604;2023-08-20T01:08:02;100967.05;;;21.80;65.13
40794;BME280;26502;51.886;15.604;2023-08-20T01:13:10;100967.84;;;21.86;65.31
40794;BME280;26502;51.886;15.604;2023-08-20T01:18:17;100973.44;;;21.81;65.30
40794;BME280;26502;51.886;15.604;2023-08-20T01:23:48;100968.55;;;21.76;65.34
40794;BME280;26502;51.886;15.604;2023-08-20T01:28:57;100967.84;;;21.71;65.63
40794;BME280;26502;51.886;15.604;2023-08-20T01:34:04;100973.49;;;21.68;65.67
40794;BME280;26502;51.886;15.604;2023-08-20T01:39:11;100968.44;;;21.66;65.58
40794;BME280;26502;51.886;15.604;2023-08-20T01:44:17;100961.61;;;21.60;65.66
40794;BME280;26502;51.886;15.604;2023-08-20T01:49:22;100966.55;;;21.57;65.83
40794;BME280;26502;51.886;15.604;2023-08-20T01:54:28;100962.27;;;21.59;65.88
40794;BME280;26502;51.886;15.604;2023-08-20T01:59:34;100962.14;;;21.53;65.88
40794;BME280;26502;51.886;15.604;2023-08-20T02:04:40;100966.70;;;21.50;66.11
40794;BME280;26502;51.886;15.604;2023-08-20T02:09:46;100972.63;;;21.45;66.11
40794;BME280;26502;51.886;15.604;2023-08-20T02:14:52;100970.38;;;21.41;66.34
40794;BME280;26502;51.886;15.604;2023-08-20T02:20:00;100970.52;;;21.42;66.48
40794;BME280;26502;51.886;15.604;2023-08-20T02:25:07;100972.33;;;21.37;66.40
40794;BME280;26502;51.886;15.604;2023-08-20T02:30:14;100970.91;;;21.27;66.59
40794;BME280;26502;51.886;15.604;2023-08-20T02:35:20;100977.41;;;21.22;66.80
40794;BME280;26502;51.886;15.604;2023-08-20T02:40:26;100972.82;;;21.23;66.81
40794;BME280;26502;51.886;15.604;2023-08-20T02:45:32;100971.94;;;21.13;66.97
40794;BME280;26502;51.886;15.604;2023-08-20T02:50:38;100969.09;;;21.02;67.01
40794;BME280;26502;51.886;15.604;2023-08-20T02:55:43;100968.09;;;21.01;67.37
40794;BME280;26502;51.886;15.604;2023-08-20T03:00:49;100962.92;;;21.07;67.44
40794;BME280;26502;51.886;15.604;2023-08-20T03:05:55;100958.58;;;21.07;67.58
40794;BME280;26502;51.886;15.604;2023-08-20T03:11:01;100957.01;;;21.09;67.69
40794;BME280;26502;51.886;15.604;2023-08-20T03:16:07;100960.39;;;21.10;67.68
40794;BME280;26502;51.886;15.604;2023-08-20T03:21:13;100962.88;;;21.03;67.56
40794;BME280;26502;51.886;15.604;2023-08-20T03:26:19;100967.77;;;20.84;67.74
40794;BME280;26502;51.886;15.604;2023-08-20T03:31:25;100976.02;;;20.70;68.07
40794;BME280;26502;51.886;15.604;2023-08-20T03:36:31;100979.96;;;20.76;68.34
40794;BME280;26502;51.886;15.604;2023-08-20T03:41:37;100980.09;;;20.82;68.43
40794;BME280;26502;51.886;15.604;2023-08-20T03:46:43;100975.40;;;20.86;68.47
40794;BME280;26502;51.886;15.604;2023-08-20T03:51:53;100981.20;;;20.89;68.50
40794;BME280;26502;51.886;15.604;2023-08-20T03:57:00;100980.11;;;20.94;68.65
40794;BME280;26502;51.886;15.604;2023-08-20T04:02:06;100984.89;;;20.93;68.60
40794;BME280;26502;51.886;15.604;2023-08-20T04:07:13;100991.84;;;20.73;68.82
40794;BME280;26502;51.886;15.604;2023-08-20T04:12:19;100996.10;;;20.61;69.20
40794;BME280;26502;51.886;15.604;2023-08-20T04:17:25;100994.13;;;20.77;69.48
40794;BME280;26502;51.886;15.604;2023-08-20T04:22:31;100997.55;;;20.90;69.50
40794;BME280;26502;51.886;15.604;2023-08-20T04:27:36;101001.64;;;20.94;69.58
40794;BME280;26502;51.886;15.604;2023-08-20T04:32:42;101005.80;;;20.93;69.56
40794;BME280;26502;51.886;15.604;2023-08-20T04:37:48;101003.35;;;20.92;69.76
40794;BME280;26502;51.886;15.604;2023-08-20T04:42:55;101008.59;;;20.90;69.75
40794;BME280;26502;51.886;15.604;2023-08-20T04:48:01;101013.59;;;20.80;70.31
40794;BME280;26502;51.886;15.604;2023-08-20T04:53:07;101015.08;;;20.95;70.10
40794;BME280;26502;51.886;15.604;2023-08-20T04:58:13;101012.89;;;21.05;70.16
40794;BME280;26502;51.886;15.604;2023-08-20T05:03:19;101019.20;;;20.95;70.12
40794;BME280;26502;51.886;15.604;2023-08-20T05:08:25;101020.96;;;21.01;70.51
40794;BME280;26502;51.886;15.604;2023-08-20T05:13:32;101023.58;;;21.13;70.51
40794;BME280;26502;51.886;15.604;2023-08-20T05:18:38;101035.45;;;21.08;70.95
40794;BME280;26502;51.886;15.604;2023-08-20T05:23:44;101037.42;;;21.18;71.30
40794;BME280;26502;51.886;15.604;2023-08-20T05:28:50;101031.45;;;21.31;71.68
40794;BME280;26502;51.886;15.604;2023-08-20T05:33:56;101037.95;;;21.52;71.67
40794;BME280;26502;51.886;15.604;2023-08-20T05:39:03;101034.17;;;21.64;71.98
40794;BME280;26502;51.886;15.604;2023-08-20T05:44:09;101040.37;;;21.71;71.86
40794;BME280;26502;51.886;15.604;2023-08-20T05:49:15;101033.43;;;21.82;72.17
40794;BME280;26502;51.886;15.604;2023-08-20T05:54:21;101034.86;;;21.94;72.13
40794;BME280;26502;51.886;15.604;2023-08-20T05:59:29;101035.91;;;22.09;72.26
40794;BME280;26502;51.886;15.604;2023-08-20T06:04:35;101043.61;;;22.17;72.30
40794;BME280;26502;51.886;15.604;2023-08-20T06:09:42;101045.75;;;22.22;72.08
40794;BME280;26502;51.886;15.604;2023-08-20T06:14:48;101045.20;;;22.15;72.18
40794;BME280;26502;51.886;15.604;2023-08-20T06:19:54;101047.02;;;22.25;72.39
40794;BME280;26502;51.886;15.604;2023-08-20T06:24:59;101054.02;;;22.31;72.33
40794;BME280;26502;51.886;15.604;2023-08-20T06:30:09;101061.83;;;22.33;72.37
40794;BME280;26502;51.886;15.604;2023-08-20T06:35:13;101067.66;;;22.37;72.50
40794;BME280;26502;51.886;15.604;2023-08-20T06:40:19;101067.92;;;22.53;72.40
40794;BME280;26502;51.886;15.604;2023-08-20T06:45:25;101064.30;;;22.73;72.72
40794;BME280;26502;51.886;15.604;2023-08-20T06:50:31;101063.08;;;23.03;72.50
40794;BME280;26502;51.886;15.604;2023-08-20T06:55:37;101063.83;;;23.37;72.46
40794;BME280;26502;51.886;15.604;2023-08-20T07:00:43;101060.70;;;23.70;71.73
40794;BME280;26502;51.886;15.604;2023-08-20T07:05:48;101064.98;;;24.15;71.85
40794;BME280;26502;51.886;15.604;2023-08-20T07:10:54;101065.40;;;24.64;71.54
40794;BME280;26502;51.886;15.604;2023-08-20T07:16:00;101068.34;;;25.02;70.94
40794;BME280;26502;51.886;15.604;2023-08-20T07:21:06;101068.44;;;25.42;70.59
40794;BME280;26502;51.886;15.604;2023-08-20T07:26:13;101067.85;;;25.91;70.05
40794;BME280;26502;51.886;15.604;2023-08-20T07:31:20;101066.71;;;26.41;69.45
40794;BME280;26502;51.886;15.604;2023-08-20T07:36:26;101067.80;;;26.78;68.75
40794;BME280;26502;51.886;15.604;2023-08-20T07:41:32;101066.56;;;27.09;67.65
40794;BME280;26502;51.886;15.604;2023-08-20T07:46:38;101074.70;;;27.49;67.08
40794;BME280;26502;51.886;15.604;2023-08-20T07:51:44;101076.90;;;27.70;66.34
40794;BME280;26502;51.886;15.604;2023-08-20T07:56:49;101078.12;;;28.05;65.38
40794;BME280;26502;51.886;15.604;2023-08-20T08:01:55;101084.14;;;28.42;64.52
40794;BME280;26502;51.886;15.604;2023-08-20T08:07:01;101089.11;;;28.79;63.46
40794;BME280;26502;51.886;15.604;2023-08-20T08:12:07;101097.63;;;29.05;62.76
40794;BME280;26502;51.886;15.604;2023-08-20T08:17:13;101095.09;;;29.24;61.84
40794;BME280;26502;51.886;15.604;2023-08-20T08:22:19;101097.74;;;29.56;61.15
40794;BME280;26502;51.886;15.604;2023-08-20T08:27:25;101090.92;;;29.97;60.49
40794;BME280;26502;51.886;15.604;2023-08-20T08:32:32;101081.73;;;30.15;59.17
40794;BME280;26502;51.886;15.604;2023-08-20T08:37:38;101079.96;;;30.07;59.03
40794;BME280;26502;51.886;15.604;2023-08-20T08:42:44;101086.23;;;30.09;58.05
40794;BME280;26502;51.886;15.604;2023-08-20T08:47:55;101096.04;;;29.91;57.00
40794;BME280;26502;51.886;15.604;2023-08-20T08:53:01;101092.96;;;30.16;56.62
40794;BME280;26502;51.886;15.604;2023-08-20T08:58:07;101103.15;;;30.42;56.18
40794;BME280;26502;51.886;15.604;2023-08-20T09:03:13;101108.58;;;30.52;55.95
40794;BME280;26502;51.886;15.604;2023-08-20T09:08:22;101116.80;;;30.58;55.33
40794;BME280;26502;51.886;15.604;2023-08-20T09:13:35;101125.52;;;30.65;54.52
40794;BME280;26502;51.886;15.604;2023-08-20T09:18:44;101130.17;;;30.52;53.35
40794;BME280;26502;51.886;15.604;2023-08-20T09:23:52;101132.80;;;30.45;53.64
40794;BME280;26502;51.886;15.604;2023-08-20T09:28:58;101128.96;;;30.69;53.46
40794;BME280;26502;51.886;15.604;2023-08-20T09:34:04;101118.09;;;30.94;53.83
40794;BME280;26502;51.886;15.604;2023-08-20T09:39:10;101123.95;;;31.09;54.02
40794;BME280;26502;51.886;15.604;2023-08-20T09:44:17;101120.98;;;31.19;54.12
40794;BME280;26502;51.886;15.604;2023-08-20T09:49:26;101119.08;;;31.27;53.76
40794;BME280;26502;51.886;15.604;2023-08-20T09:54:59;101122.84;;;31.33;53.71
40794;BME280;26502;51.886;15.604;2023-08-20T10:00:08;101125.11;;;31.34;53.13
40794;BME280;26502;51.886;15.604;2023-08-20T10:05:20;101126.19;;;31.41;52.78
40794;BME280;26502;51.886;15.604;2023-08-20T10:10:28;101128.04;;;31.47;52.68
40794;BME280;26502;51.886;15.604;2023-08-20T10:15:33;101120.86;;;31.76;52.42
40794;BME280;26502;51.886;15.604;2023-08-20T10:20:41;101123.68;;;31.92;52.01
40794;BME280;26502;51.886;15.604;2023-08-20T10:25:48;101123.97;;;31.97;51.63
40794;BME280;26502;51.886;15.604;2023-08-20T10:31:08;101123.86;;;32.12;51.26
40794;BME280;26502;51.886;15.604;2023-08-20T10:36:17;101122.15;;;32.32;50.80
40794;BME280;26502;51.886;15.604;2023-08-20T10:41:27;101125.67;;;32.33;50.08
40794;BME280;26502;51.886;15.604;2023-08-20T10:46:33;101121.55;;;32.69;49.94
40794;BME280;26502;51.886;15.604;2023-08-20T10:51:54;101122.81;;;32.46;48.68
40794;BME280;26502;51.886;15.604;2023-08-20T10:57:02;101121.14;;;32.49;48.81
40794;BME280;26502;51.886;15.604;2023-08-20T11:02:12;101115.30;;;32.84;48.84
40794;BME280;26502;51.886;15.604;2023-08-20T11:07:21;101113.42;;;32.85;47.65
40794;BME280;26502;51.886;15.604;2023-08-20T11:12:30;101113.29;;;32.85;47.59
40794;BME280;26502;51.886;15.604;2023-08-20T11:17:36;101115.64;;;32.99;47.48
40794;BME280;26502;51.886;15.604;2023-08-20T11:22:45;101112.33;;;32.94;47.45
40794;BME280;26502;51.886;15.604;2023-08-20T11:27:52;101113.27;;;32.52;46.03
40794;BME280;26502;51.886;15.604;2023-08-20T11:32:59;101115.63;;;32.56;46.39
40794;BME280;26502;51.886;15.604;2023-08-20T11:38:06;101118.23;;;32.94;46.56
40794;BME280;26502;51.886;15.604;2023-08-20T11:43:10;101111.30;;;33.22;45.94
40794;BME280;26502;51.886;15.604;2023-08-20T11:48:17;101109.66;;;33.36;45.53
40794;BME280;26502;51.886;15.604;2023-08-20T11:53:22;101110.48;;;33.29;44.95
40794;BME280;26502;51.886;15.604;2023-08-20T11:58:30;101113.98;;;33.02;44.43
40794;BME280;26502;51.886;15.604;2023-08-20T12:03:43;101112.56;;;32.75;44.53
40794;BME280;26502;51.886;15.604;2023-08-20T12:08:51;101113.20;;;32.60;45.00
40794;BME280;26502;51.886;15.604;2023-08-20T12:13:59;101103.67;;;32.54;45.35
40794;BME280;26502;51.886;15.604;2023-08-20T12:19:09;101096.65;;;32.82;45.45
40794;BME280;26502;51.886;15.604;2023-08-20T12:24:18;101095.58;;;32.63;45.48
40794;BME280;26502;51.886;15.604;2023-08-20T12:29:27;101095.19;;;32.35;45.84
40794;BME280;26502;51.886;15.604;2023-08-20T12:34:35;101088.66;;;32.44;46.28
40794;BME280;26502;51.886;15.604;2023-08-20T12:39:44;101082.64;;;32.96;46.42
40794;BME280;26502;51.886;15.604;2023-08-20T12:44:51;101087.07;;;32.89;46.04
40794;BME280;26502;51.886;15.604;2023-08-20T12:49:58;101088.27;;;32.71;45.63
40794;BME280;26502;51.886;15.604;2023-08-20T12:55:06;101090.27;;;32.31;46.01
40794;BME280;26502;51.886;15.604;2023-08-20T13:00:15;101086.13;;;32.24;46.43
40794;BME280;26502;51.886;15.604;2023-08-20T13:05:24;101085.30;;;32.74;46.90
40794;BME280;26502;51.886;15.604;2023-08-20T13:10:33;101080.29;;;33.14;45.72
40794;BME280;26502;51.886;15.604;2023-08-20T13:15:42;101081.57;;;33.14;45.10
40794;BME280;26502;51.886;15.604;2023-08-20T13:20:52;101079.91;;;33.52;45.30
40794;BME280;26502;51.886;15.604;2023-08-20T13:25:59;101079.27;;;33.73;45.00
40794;BME280;26502;51.886;15.604;2023-08-20T13:31:07;101080.13;;;33.85;43.88
40794;BME280;26502;51.886;15.604;2023-08-20T13:36:14;101072.35;;;34.24;43.36
40794;BME280;26502;51.886;15.604;2023-08-20T13:41:21;101065.01;;;34.29;43.26
40794;BME280;26502;51.886;15.604;2023-08-20T13:46:27;101061.54;;;34.38;42.70
40794;BME280;26502;51.886;15.604;2023-08-20T13:51:33;101061.53;;;34.26;42.79
40794;BME280;26502;51.886;15.604;2023-08-20T13:56:39;101059.60;;;34.63;42.54
40794;BME280;26502;51.886;15.604;2023-08-20T14:01:45;101058.15;;;34.67;41.46
40794;BME280;26502;51.886;15.604;2023-08-20T14:06:51;101052.17;;;34.85;41.97
40794;BME280;26502;51.886;15.604;2023-08-20T14:11:57;101048.80;;;34.84;41.77
40794;BME280;26502;51.886;15.604;2023-08-20T14:17:03;101050.68;;;34.90;41.41
40794;BME280;26502;51.886;15.604;2023-08-20T14:22:08;101052.05;;;35.10;41.56
40794;BME280;26502;51.886;15.604;2023-08-20T14:27:15;101053.17;;;35.12;41.47
40794;BME280;26502;51.886;15.604;2023-08-20T14:32:22;101053.64;;;34.83;40.82
40794;BME280;26502;51.886;15.604;2023-08-20T14:37:28;101054.50;;;34.37;40.79
40794;BME280;26502;51.886;15.604;2023-08-20T14:42:32;101055.31;;;34.10;40.90
40794;BME280;26502;51.886;15.604;2023-08-20T14:47:39;101049.10;;;34.41;40.68
40794;BME280;26502;51.886;15.604;2023-08-20T14:52:47;101046.29;;;34.69;40.37
40794;BME280;26502;51.886;15.604;2023-08-20T14:57:57;101051.98;;;35.00;39.67
40794;BME280;26502;51.886;15.604;2023-08-20T15:03:05;101049.66;;;35.17;39.02
40794;BME280;26502;51.886;15.604;2023-08-20T15:08:12;101042.50;;;35.50;38.59
40794;BME280;26502;51.886;15.604;2023-08-20T15:13:20;101039.02;;;35.25;37.34
40794;BME280;26502;51.886;15.604;2023-08-20T15:18:26;101041.17;;;35.01;37.63
40794;BME280;26502;51.886;15.604;2023-08-20T15:23:33;101043.34;;;35.14;37.31
40794;BME280;26502;51.886;15.604;2023-08-20T15:28:39;101032.55;;;35.05;37.16
40794;BME280;26502;51.886;15.604;2023-08-20T15:33:46;101033.25;;;35.27;37.02
40794;BME280;26502;51.886;15.604;2023-08-20T15:38:53;101033.16;;;35.06;36.91
40794;BME280;26502;51.886;15.604;2023-08-20T15:44:00;101027.37;;;34.77;36.99
40794;BME280;26502;51.886;15.604;2023-08-20T15:49:07;101025.67;;;34.47;37.48
40794;BME280;26502;51.886;15.604;2023-08-20T15:54:13;101026.75;;;34.60;37.75
40794;BME280;26502;51.886;15.604;2023-08-20T15:59:22;101031.59;;;34.84;37.60
40794;BME280;26502;51.886;15.604;2023-08-20T16:04:30;101028.79;;;34.90;37.78
40794;BME280;26502;51.886;15.604;2023-08-20T16:09:38;101025.21;;;34.89;37.66
40794;BME280;26502;51.886;15.604;2023-08-20T16:14:48;101024.55;;;35.00;37.84
40794;BME280;26502;51.886;15.604;2023-08-20T16:19:55;101030.05;;;34.72;37.77
40794;BME280;26502;51.886;15.604;2023-08-20T16:25:03;101033.84;;;34.44;37.69
40794;BME280;26502;51.886;15.604;2023-08-20T16:30:11;101034.91;;;34.11;38.05
40794;BME280;26502;51.886;15.604;2023-08-20T16:35:18;101039.55;;;33.67;38.21
40794;BME280;26502;51.886;15.604;2023-08-20T16:40:24;101042.88;;;33.25;38.82
40794;BME280;26502;51.886;15.604;2023-08-20T16:45:31;101044.38;;;33.25;39.79
40794;BME280;26502;51.886;15.604;2023-08-20T16:50:38;101039.25;;;33.03;40.04
40794;BME280;26502;51.886;15.604;2023-08-20T16:55:51;101042.95;;;32.82;40.76
40794;BME280;26502;51.886;15.604;2023-08-20T17:00:58;101048.83;;;32.64;41.63
40794;BME280;26502;51.886;15.604;2023-08-20T17:06:05;101055.75;;;32.47;42.03
40794;BME280;26502;51.886;15.604;2023-08-20T17:11:11;101052.80;;;32.34;42.81
40794;BME280;26502;51.886;15.604;2023-08-20T17:16:16;101052.88;;;32.19;43.47
40794;BME280;26502;51.886;15.604;2023-08-20T17:21:22;101058.00;;;32.05;43.85
40794;BME280;26502;51.886;15.604;2023-08-20T17:26:29;101059.08;;;31.93;44.42
40794;BME280;26502;51.886;15.604;2023-08-20T17:31:35;101070.41;;;31.74;44.79
40794;BME280;26502;51.886;15.604;2023-08-20T17:36:41;101068.94;;;31.52;45.33
40794;BME280;26502;51.886;15.604;2023-08-20T17:41:48;101074.27;;;31.39;45.99
40794;BME280;26502;51.886;15.604;2023-08-20T17:46:55;101075.80;;;31.23;46.43
40794;BME280;26502;51.886;15.604;2023-08-20T17:52:03;101082.55;;;31.00;46.88
40794;BME280;26502;51.886;15.604;2023-08-20T17:57:09;101084.20;;;30.85;47.50
40794;BME280;26502;51.886;15.604;2023-08-20T18:02:15;101081.88;;;30.67;47.77
40794;BME280;26502;51.886;15.604;2023-08-20T18:07:21;101080.27;;;30.53;48.40
40794;BME280;26502;51.886;15.604;2023-08-20T18:12:29;101085.31;;;30.37;48.52
40794;BME280;26502;51.886;15.604;2023-08-20T18:17:34;101087.48;;;30.17;48.91
40794;BME280;26502;51.886;15.604;2023-08-20T18:22:40;101093.98;;;29.96;49.28
40794;BME280;26502;51.886;15.604;2023-08-20T18:27:46;101101.55;;;29.78;49.24
40794;BME280;26502;51.886;15.604;2023-08-20T18:32:52;101107.69;;;29.62;49.44
40794;BME280;26502;51.886;15.604;2023-08-20T18:37:58;101115.55;;;29.43;49.68
40794;BME280;26502;51.886;15.604;2023-08-20T18:43:05;101125.59;;;29.17;50.18
40794;BME280;26502;51.886;15.604;2023-08-20T18:48:10;101136.88;;;28.95;50.51
40794;BME280;26502;51.886;15.604;2023-08-20T18:53:17;101144.30;;;28.74;50.99
40794;BME280;26502;51.886;15.604;2023-08-20T18:58:24;101151.65;;;28.71;51.60
40794;BME280;26502;51.886;15.604;2023-08-20T19:03:30;101154.30;;;28.58;51.97
40794;BME280;26502;51.886;15.604;2023-08-20T19:08:36;101155.73;;;28.49;52.14
40794;BME280;26502;51.886;15.604;2023-08-20T19:13:44;101154.94;;;28.35;52.61
40794;BME280;26502;51.886;15.604;2023-08-20T19:18:50;101163.48;;;28.26;52.73
40794;BME280;26502;51.886;15.604;2023-08-20T19:23:57;101171.92;;;28.17;53.12
40794;BME280;26502;51.886;15.604;2023-08-20T19:29:04;101173.67;;;28.07;53.29
40794;BME280;26502;51.886;15.604;2023-08-20T19:34:10;101175.57;;;27.99;53.49
40794;BME280;26502;51.886;15.604;2023-08-20T19:39:16;101178.93;;;27.86;53.77
40794;BME280;26502;51.886;15.604;2023-08-20T19:44:23;101182.84;;;27.82;54.12
40794;BME280;26502;51.886;15.604;2023-08-20T19:49:28;101185.44;;;27.74;54.40
40794;BME280;26502;51.886;15.604;2023-08-20T19:54:34;101186.73;;;27.68;54.52
40794;BME280;26502;51.886;15.604;2023-08-20T19:59:40;101188.21;;;27.54;54.75
40794;BME280;26502;51.886;15.604;2023-08-20T20:04:47;101191.02;;;27.52;55.03
40794;BME280;26502;51.886;15.604;2023-08-20T20:09:53;101194.89;;;27.46;55.13
40794;BME280;26502;51.886;15.604;2023-08-20T20:14:59;101191.48;;;27.37;55.36
40794;BME280;26502;51.886;15.604;2023-08-20T20:20:07;101189.52;;;27.23;55.48
40794;BME280;26502;51.886;15.604;2023-08-20T20:25:15;101180.16;;;27.04;55.81
40794;BME280;26502;51.886;15.604;2023-08-20T20:30:22;101184.13;;;26.94;55.93
40794;BME280;26502;51.886;15.604;2023-08-20T20:35:30;101195.63;;;26.71;56.21
40794;BME280;26502;51.886;15.604;2023-08-20T20:40:37;101195.80;;;26.65;56.56
40794;BME280;26502;51.886;15.604;2023-08-20T20:45:46;101196.34;;;26.51;56.58
40794;BME280;26502;51.886;15.604;2023-08-20T20:50:53;101194.64;;;26.42;56.93
40794;BME280;26502;51.886;15.604;2023-08-20T20:55:59;101203.21;;;26.32;56.96
40794;BME280;26502;51.886;15.604;2023-08-20T21:01:05;101207.02;;;26.10;57.35
40794;BME280;26502;51.886;15.604;2023-08-20T21:06:11;101211.03;;;25.91;57.77
40794;BME280;26502;51.886;15.604;2023-08-20T21:11:17;101210.01;;;25.68;58.06
40794;BME280;26502;51.886;15.604;2023-08-20T21:16:23;101216.51;;;25.77;58.29
40794;BME280;26502;51.886;15.604;2023-08-20T21:21:29;101217.46;;;25.78;58.58
40794;BME280;26502;51.886;15.604;2023-08-20T21:26:35;101218.41;;;25.74;58.66
40794;BME280;26502;51.886;15.604;2023-08-20T21:31:40;101225.99;;;25.72;58.71
40794;BME280;26502;51.886;15.604;2023-08-20T21:36:46;101229.88;;;25.67;58.74
40794;BME280;26502;51.886;15.604;2023-08-20T21:41:52;101232.48;;;25.64;58.83
40794;BME280;26502;51.886;15.604;2023-08-20T21:47:13;101237.09;;;25.64;58.99
40794;BME280;26502;51.886;15.604;2023-08-20T21:52:24;101237.69;;;25.57;59.05
40794;BME280;26502;51.886;15.604;2023-08-20T21:57:31;101236.74;;;25.60;59.35
40794;BME280;26502;51.886;15.604;2023-08-20T22:02:37;101238.70;;;25.60;59.31
40794;BME280;26502;51.886;15.604;2023-08-20T22:07:45;101243.67;;;25.55;59.42
40794;BME280;26502;51.886;15.604;2023-08-20T22:12:52;101243.42;;;25.50;59.88
40794;BME280;26502;51.886;15.604;2023-08-20T22:17:58;101249.21;;;25.42;60.00
40794;BME280;26502;51.886;15.604;2023-08-20T22:23:05;101240.11;;;25.40;60.26
40794;BME280;26502;51.886;15.604;2023-08-20T22:28:10;101236.86;;;25.33;60.28
40794;BME280;26502;51.886;15.604;2023-08-20T22:33:17;101239.70;;;25.31;60.63
40794;BME280;26502;51.886;15.604;2023-08-20T22:38:23;101245.95;;;25.33;60.74
40794;BME280;26502;51.886;15.604;2023-08-20T22:43:28;101249.58;;;25.28;61.02
40794;BME280;26502;51.886;15.604;2023-08-20T22:48:34;101250.96;;;25.27;61.15
40794;BME280;26502;51.886;15.604;2023-08-20T22:53:40;101256.77;;;25.27;61.32
40794;BME280;26502;51.886;15.604;2023-08-20T22:58:46;101255.31;;;25.18;61.47
40794;BME280;26502;51.886;15.604;2023-08-20T23:03:52;101254.40;;;25.10;61.42
40794;BME280;26502;51.886;15.604;2023-08-20T23:08:57;101250.83;;;25.03;61.53
40794;BME280;26502;51.886;15.604;2023-08-20T23:14:03;101258.39;;;24.97;61.52
40794;BME280;26502;51.886;15.604;2023-08-20T23:19:09;101249.14;;;24.89;61.67
40794;BME280;26502;51.886;15.604;2023-08-20T23:24:16;101245.95;;;24.72;61.66
40794;BME280;26502;51.886;15.604;2023-08-20T23:29:22;101262.27;;;24.61;61.89
40794;BME280;26502;51.886;15.604;2023-08-20T23:34:28;101267.79;;;24.54;62.14
40794;BME280;26502;51.886;15.604;2023-08-20T23:39:34;101263.60;;;24.49;62.10
40794;BME280;26502;51.886;15.604;2023-08-20T23:44:40;101266.72;;;24.42;62.28
40794;BME280;26502;51.886;15.604;2023-08-20T23:49:46;101284.38;;;24.39;62.52
40794;BME280;26502;51.886;15.604;2023-08-20T23:54:52;101280.02;;;24.35;62.41
40794;BME280;26502;51.886;15.604;2023-08-20T23:59:57;101273.01;;;24.18;62.71
